Stadt Schwerin — V2OK — position and weather

sailwx.info

Track history (hours):
 
Tides and Currents Weather Stations Pressure Air Temp Water Temp Dewpoint Dewpoint Depression Visibility Wind Speed Wind Dir Waves Ship Positions

Stadt Schwerin

Last reported at 2014-Oct-19 17:29 UTC. Time now 2014-Oct-23 04:32 UTC.
Position N 36°53' E 006°54'.

Length 158 m; draft 7.5 m.

Type: Cargo ship. MMSI: 304010999.

Date/timePositionNaut miles runAvg speedWind from/ knotsBaromVisibWave heightAir tempDewpointWater temp
2014-Oct-19 17:29N 36°53' E 006°54'  
2014-Oct-14 16:19N 37°38' E 009°58'912.4
2014-Oct-14 15:34N 37°38' E 010°10'1312.7
2014-Oct-14 14:32N 37°37' E 010°27'6813.4
2014-Oct-14 09:26N 37°09' E 011°45'1213.2
2014-Oct-14 08:33N 37°03' E 011°57'1313.3
2014-Oct-14 07:33N 36°55' E 012°11'132 5.1
2014-Oct-13 05:30N 35°49' E 014°33'0 0.0
2014-Oct-13 04:33N 35°49' E 014°33'0 0.0
2014-Oct-13 03:33N 35°49' E 014°33'0 0.0
2014-Oct-13 02:33N 35°49' E 014°33'0 0.0
2014-Oct-13 01:27N 35°49' E 014°33'0 0.0
2014-Oct-13 00:33N 35°49' E 014°33'0 0.0
2014-Oct-12 23:33N 35°49' E 014°33'0 0.0
2014-Oct-12 22:15N 35°49' E 014°33'0 0.0
2014-Oct-12 21:33N 35°49' E 014°33'0 0.0
2014-Oct-12 20:30N 35°49' E 014°33'0 0.0
2014-Oct-12 19:32N 35°49' E 014°33'0 0.0
2014-Oct-12 18:33N 35°49' E 014°33'3 3.0
2014-Oct-12 17:33N 35°47' E 014°36'4 4.5
2014-Oct-12 16:33N 35°43' E 014°38'0 0.5
2014-Oct-12 15:33N 35°44' E 014°39'5 5.1
2014-Oct-12 14:33N 35°47' E 014°43'5 4.4
2014-Oct-12 13:27N 35°45' E 014°38'2211.9
2014-Oct-12 11:33N 35°51' E 014°11'1313.4
2014-Oct-12 10:33N 35°58' E 013°57'1313.2
2014-Oct-12 09:33N 36°05' E 013°43'1313.5
2014-Oct-12 08:33N 36°12' E 013°29'1313.2
2014-Oct-12 07:33N 36°19' E 013°15'1413.6
2014-Oct-12 06:33N 36°26' E 013°01'1413.6
2014-Oct-12 05:33N 36°33' E 012°47'1413.7
2014-Oct-12 04:34N 36°40' E 012°32'1414.1
2014-Oct-12 03:34N 36°48' E 012°17'1414.1
2014-Oct-12 02:34N 36°55' E 012°02'1414.3
2014-Oct-12 01:33N 37°03' E 011°47'6813.7
2014-Oct-11 20:33N 37°31' E 010°29'1413.8
2014-Oct-11 19:33N 37°34' E 010°12'1414.0
2014-Oct-11 18:33N 37°33' E 009°54'1414.3
2014-Oct-11 17:32N 37°28' E 009°37'1414.4
2014-Oct-11 16:33N 37°24' E 009°20'1514.7
2014-Oct-11 15:33N 37°20' E 009°02'1414.1
2014-Oct-11 14:33N 37°17' E 008°45'1414.1
2014-Oct-11 13:33N 37°17' E 008°27'1413.8
2014-Oct-11 12:33N 37°17' E 008°09'1414.1
2014-Oct-11 11:33N 37°17' E 007°52'1515.0
2014-Oct-11 10:34N 37°17' E 007°33'13813.8
2014-Oct-11 00:33N 37°06' E 004°41'1614.7
2014-Oct-10 23:29N 37°04' E 004°21'1614.8
2014-Oct-10 22:24N 37°01' E 004°02'1314.6
2014-Oct-10 21:33N 36°59' E 003°46'1515.0
2014-Oct-10 20:33N 36°55' E 003°28'1514.6
2014-Oct-10 19:33N 36°51' E 003°11'7 0.9
2014-Oct-10 11:32N 36°46' E 003°04'0 0.0
2014-Oct-10 10:32N 36°46' E 003°04'0 0.0
2014-Oct-10 06:14N 36°46' E 003°04'0 0.0
2014-Oct-10 05:32N 36°46' E 003°04'0 0.0
2014-Oct-09 23:07N 36°46' E 003°04'0 0.0
2014-Oct-09 22:19N 36°46' E 003°04'0 0.0
2014-Oct-09 21:31N 36°46' E 003°04'0 0.0
2014-Oct-09 20:31N 36°46' E 003°04'0 0.0
2014-Oct-09 19:31N 36°46' E 003°04'0 0.0
2014-Oct-09 18:10N 36°46' E 003°04'0 0.0
2014-Oct-09 17:31N 36°46' E 003°04'  
Track history (hours):
 
Tides and Currents Weather Stations Pressure Air Temp Water Temp Dewpoint Dewpoint Depression Visibility Wind Speed Wind Dir Waves Ship Positions

Stadt Schwerin

Last reported at 2014-Oct-19 17:29 UTC. Time now 2014-Oct-23 04:32 UTC.
Position N 36°53' E 006°54'.

Length 158 m; draft 7.5 m.

Type: Cargo ship. MMSI: 304010999.

Date/timePositionNaut miles runAvg speedWind from/ knotsBaromVisibWave heightAir tempDewpointWater temp
2014-Oct-19 17:29N 36°53' E 006°54'  
2014-Oct-14 16:19N 37°38' E 009°58'912.4
2014-Oct-14 15:34N 37°38' E 010°10'1312.7
2014-Oct-14 14:32N 37°37' E 010°27'6813.4
2014-Oct-14 09:26N 37°09' E 011°45'1213.2
2014-Oct-14 08:33N 37°03' E 011°57'1313.3
2014-Oct-14 07:33N 36°55' E 012°11'132 5.1
2014-Oct-13 05:30N 35°49' E 014°33'0 0.0
2014-Oct-13 04:33N 35°49' E 014°33'0 0.0
2014-Oct-13 03:33N 35°49' E 014°33'0 0.0
2014-Oct-13 02:33N 35°49' E 014°33'0 0.0
2014-Oct-13 01:27N 35°49' E 014°33'0 0.0
2014-Oct-13 00:33N 35°49' E 014°33'0 0.0
2014-Oct-12 23:33N 35°49' E 014°33'0 0.0
2014-Oct-12 22:15N 35°49' E 014°33'0 0.0
2014-Oct-12 21:33N 35°49' E 014°33'0 0.0
2014-Oct-12 20:30N 35°49' E 014°33'0 0.0
2014-Oct-12 19:32N 35°49' E 014°33'0 0.0
2014-Oct-12 18:33N 35°49' E 014°33'3 3.0
2014-Oct-12 17:33N 35°47' E 014°36'4 4.5
2014-Oct-12 16:33N 35°43' E 014°38'0 0.5
2014-Oct-12 15:33N 35°44' E 014°39'5 5.1
2014-Oct-12 14:33N 35°47' E 014°43'5 4.4
2014-Oct-12 13:27N 35°45' E 014°38'2211.9
2014-Oct-12 11:33N 35°51' E 014°11'1313.4
2014-Oct-12 10:33N 35°58' E 013°57'1313.2
2014-Oct-12 09:33N 36°05' E 013°43'1313.5
2014-Oct-12 08:33N 36°12' E 013°29'1313.2
2014-Oct-12 07:33N 36°19' E 013°15'1413.6
2014-Oct-12 06:33N 36°26' E 013°01'1413.6
2014-Oct-12 05:33N 36°33' E 012°47'1413.7
2014-Oct-12 04:34N 36°40' E 012°32'1414.1
2014-Oct-12 03:34N 36°48' E 012°17'1414.1
2014-Oct-12 02:34N 36°55' E 012°02'1414.3
2014-Oct-12 01:33N 37°03' E 011°47'6813.7
2014-Oct-11 20:33N 37°31' E 010°29'1413.8
2014-Oct-11 19:33N 37°34' E 010°12'1414.0
2014-Oct-11 18:33N 37°33' E 009°54'1414.3
2014-Oct-11 17:32N 37°28' E 009°37'1414.4
2014-Oct-11 16:33N 37°24' E 009°20'1514.7
2014-Oct-11 15:33N 37°20' E 009°02'1414.1
2014-Oct-11 14:33N 37°17' E 008°45'1414.1
2014-Oct-11 13:33N 37°17' E 008°27'1413.8
2014-Oct-11 12:33N 37°17' E 008°09'1414.1
2014-Oct-11 11:33N 37°17' E 007°52'1515.0
2014-Oct-11 10:34N 37°17' E 007°33'13813.8
2014-Oct-11 00:33N 37°06' E 004°41'1614.7
2014-Oct-10 23:29N 37°04' E 004°21'1614.8
2014-Oct-10 22:24N 37°01' E 004°02'1314.6
2014-Oct-10 21:33N 36°59' E 003°46'1515.0
2014-Oct-10 20:33N 36°55' E 003°28'1514.6
2014-Oct-10 19:33N 36°51' E 003°11'7 0.9
2014-Oct-10 11:32N 36°46' E 003°04'0 0.0
2014-Oct-10 10:32N 36°46' E 003°04'0 0.0
2014-Oct-10 06:14N 36°46' E 003°04'0 0.0
2014-Oct-10 05:32N 36°46' E 003°04'0 0.0
2014-Oct-09 23:07N 36°46' E 003°04'0 0.0
2014-Oct-09 22:19N 36°46' E 003°04'0 0.0
2014-Oct-09 21:31N 36°46' E 003°04'0 0.0
2014-Oct-09 20:31N 36°46' E 003°04'0 0.0
2014-Oct-09 19:31N 36°46' E 003°04'0 0.0
2014-Oct-09 18:10N 36°46' E 003°04'0 0.0
2014-Oct-09 17:31N 36°46' E 003°04'  

Dump ship's entire track history